createdAt,value
2018-11-12T00:00:43.544Z,81.40
2018-11-12T00:06:12.832Z,81.00
2018-11-12T00:11:42.196Z,81.00
2018-11-12T00:17:11.499Z,81.00
2018-11-12T00:22:40.744Z,81.20
2018-11-12T00:28:10.059Z,81.20
2018-11-12T00:33:39.417Z,81.30
2018-11-12T00:39:11.212Z,81.40
2018-11-12T00:44:40.432Z,81.10
2018-11-12T00:50:11.132Z,80.90
2018-11-12T00:55:40.508Z,80.80
2018-11-12T01:01:09.829Z,80.60
2018-11-12T01:06:39.044Z,80.70
2018-11-12T01:12:09.095Z,80.70
2018-11-12T01:17:39.063Z,80.60
2018-11-12T01:23:08.525Z,80.50
2018-11-12T01:28:37.794Z,80.30
2018-11-12T01:34:07.225Z,80.30
2018-11-12T01:39:36.480Z,80.20
2018-11-12T01:45:11.225Z,80.70
2018-11-12T01:50:40.509Z,81.00
2018-11-12T01:56:09.816Z,80.70
2018-11-12T02:01:39.207Z,80.40
2018-11-12T02:07:08.568Z,80.20
2018-11-12T02:12:38.240Z,80.10
2018-11-12T02:18:07.604Z,80.10
2018-11-12T02:23:37.128Z,80.10
2018-11-12T02:29:06.862Z,80.00
2018-11-12T02:34:36.101Z,80.00
2018-11-12T02:40:06.465Z,80.00
2018-11-12T02:45:35.733Z,80.00
2018-11-12T02:51:06.695Z,80.00
2018-11-12T02:56:36.068Z,79.80
2018-11-12T03:02:05.556Z,79.80
2018-11-12T03:07:34.969Z,79.80
2018-11-12T03:13:04.186Z,79.70
2018-11-12T03:18:33.499Z,79.70
2018-11-12T03:24:02.780Z,79.50
2018-11-12T03:29:32.096Z,79.60
2018-11-12T03:35:01.319Z,79.50
2018-11-12T03:40:30.879Z,79.60
2018-11-12T03:46:00.170Z,79.60
2018-11-12T03:51:29.422Z,79.70
2018-11-12T03:56:58.676Z,79.60
2018-11-12T04:02:27.917Z,79.50
2018-11-12T04:07:57.355Z,79.60
2018-11-12T04:13:26.601Z,79.50
2018-11-12T04:18:55.896Z,79.50
2018-11-12T04:24:25.245Z,79.50
2018-11-12T04:29:54.522Z,79.60
2018-11-12T04:35:23.843Z,79.60
2018-11-12T04:40:53.104Z,79.60
2018-11-12T04:46:22.433Z,79.60
2018-11-12T04:51:51.693Z,79.60
2018-11-12T04:57:21.009Z,79.70
2018-11-12T05:02:50.492Z,79.70
2018-11-12T05:08:19.793Z,79.60
2018-11-12T05:13:49.040Z,79.60
2018-11-12T05:19:18.251Z,79.70
2018-11-12T05:24:47.477Z,79.70
2018-11-12T05:30:20.068Z,79.60
2018-11-12T05:35:49.292Z,79.80
2018-11-12T05:41:18.524Z,79.70
2018-11-12T05:46:48.798Z,79.80
2018-11-12T05:52:18.088Z,79.70
2018-11-12T05:57:48.597Z,79.70
2018-11-12T06:03:18.885Z,79.70
2018-11-12T06:08:48.172Z,79.60
2018-11-12T06:14:17.588Z,79.20
2018-11-12T06:19:46.814Z,79.80
2018-11-12T06:25:17.634Z,79.90
2018-11-12T06:30:46.936Z,80.00
2018-11-12T06:36:16.174Z,80.00
2018-11-12T06:41:45.424Z,80.10
2018-11-12T06:47:14.685Z,80.20
2018-11-12T06:52:43.976Z,80.40
2018-11-12T06:58:13.184Z,80.40
2018-11-12T07:03:42.400Z,80.60
2018-11-12T07:09:13.121Z,80.80
2018-11-12T07:14:42.353Z,81.00
2018-11-12T07:20:14.673Z,81.00
2018-11-12T07:25:43.890Z,81.20
2018-11-12T07:31:13.187Z,81.30
2018-11-12T07:36:42.333Z,81.60
2018-11-12T07:42:11.697Z,81.80
2018-11-12T07:47:41.824Z,81.90
2018-11-12T07:53:11.104Z,82.20
2018-11-12T07:58:40.420Z,82.20
2018-11-12T08:04:09.732Z,82.40
2018-11-12T08:09:39.019Z,82.60
2018-11-12T08:15:09.664Z,82.70
2018-11-12T08:20:38.908Z,82.50
2018-11-12T08:26:08.162Z,82.60
2018-11-12T08:31:37.396Z,82.60
2018-11-12T08:37:07.245Z,82.60
2018-11-12T08:42:36.523Z,82.60
2018-11-12T08:48:06.028Z,82.60
2018-11-12T08:53:35.284Z,82.50
2018-11-12T08:59:04.577Z,82.30
2018-11-12T09:04:33.792Z,81.10
2018-11-12T09:10:03.063Z,80.90
2018-11-12T09:15:32.449Z,80.70
2018-11-12T09:21:01.722Z,80.40
2018-11-12T09:26:31.120Z,79.90
2018-11-12T09:32:00.395Z,79.70
2018-11-12T09:37:29.735Z,79.30
2018-11-12T09:42:58.978Z,79.60
2018-11-12T09:48:29.114Z,78.20
2018-11-12T09:53:58.390Z,77.50
2018-11-12T09:59:27.659Z,77.00
2018-11-12T10:04:58.195Z,76.80
2018-11-12T10:10:41.622Z,76.20
2018-11-12T10:16:11.496Z,75.70
2018-11-12T10:21:37.549Z,75.30
2018-11-12T10:27:07.155Z,74.60
2018-11-12T10:32:36.368Z,74.10
2018-11-12T10:38:06.020Z,73.60
2018-11-12T10:43:35.316Z,73.10
2018-11-12T10:49:04.503Z,72.80
2018-11-12T10:54:33.825Z,72.20
2018-11-12T11:00:03.116Z,71.80
2018-11-12T11:05:32.608Z,71.20
2018-11-12T11:11:02.068Z,70.80
2018-11-12T11:16:31.354Z,70.90
2018-11-12T11:22:00.632Z,69.70
2018-11-12T11:27:29.936Z,69.40
2018-11-12T11:32:59.164Z,68.80
2018-11-12T11:38:28.421Z,68.50
2018-11-12T11:43:57.708Z,68.00
2018-11-12T11:49:27.923Z,67.60
2018-11-12T11:54:57.156Z,67.10
2018-11-12T12:00:27.880Z,66.30
2018-11-12T12:05:57.265Z,65.40
2018-11-12T12:11:27.108Z,65.10
2018-11-12T12:16:56.529Z,64.60
2018-11-12T12:22:25.769Z,64.90
2018-11-12T12:27:55.068Z,64.60
2018-11-12T12:33:24.285Z,64.50
2018-11-12T12:38:53.735Z,63.90
2018-11-12T12:44:23.159Z,63.80
2018-11-12T12:49:52.453Z,63.70
2018-11-12T12:55:21.908Z,62.50
2018-11-12T13:00:51.133Z,61.20
2018-11-12T13:06:20.511Z,60.40
2018-11-12T13:11:49.762Z,59.60
2018-11-12T13:17:19.096Z,59.20
2018-11-12T13:22:48.900Z,59.00
2018-11-12T13:28:19.231Z,58.60
2018-11-12T13:33:48.676Z,57.80
2018-11-12T13:39:18.047Z,57.10
2018-11-12T13:44:47.336Z,55.90
2018-11-12T13:50:18.151Z,55.00
2018-11-12T13:55:47.529Z,53.50
2018-11-12T14:01:16.832Z,52.00
2018-11-12T14:06:46.205Z,54.20
2018-11-12T14:12:15.549Z,54.10
2018-11-12T14:17:46.251Z,53.80
2018-11-12T14:23:15.666Z,53.80
2018-11-12T14:28:45.114Z,53.00
2018-11-12T14:34:14.317Z,53.00
2018-11-12T14:39:43.647Z,53.00
2018-11-12T14:45:15.247Z,52.40
2018-11-12T14:50:44.493Z,52.30
2018-11-12T14:56:13.752Z,52.70
2018-11-12T15:01:43.039Z,53.40
2018-11-12T15:07:12.412Z,53.60
2018-11-12T15:12:42.189Z,54.20
2018-11-12T15:18:11.510Z,55.30
2018-11-12T15:23:40.844Z,56.10
2018-11-12T15:29:10.129Z,57.20
2018-11-12T15:34:39.581Z,58.20
2018-11-12T15:40:10.021Z,59.00
2018-11-12T15:45:39.422Z,59.90
2018-11-12T15:51:08.832Z,60.70
2018-11-12T15:56:38.215Z,61.40
2018-11-12T16:02:07.560Z,62.10
2018-11-12T16:07:36.914Z,62.80
2018-11-12T16:13:06.316Z,63.20
2018-11-12T16:18:35.642Z,63.70
2018-11-12T16:24:05.331Z,64.40
2018-11-12T16:29:34.574Z,65.00
2018-11-12T16:35:04.317Z,65.30
2018-11-12T16:40:33.749Z,66.40
2018-11-12T16:46:03.134Z,66.70
2018-11-12T16:51:32.503Z,66.40
2018-11-12T16:57:01.992Z,66.80
2018-11-12T17:02:31.269Z,67.20
2018-11-12T17:08:00.601Z,67.50
2018-11-12T17:13:29.893Z,67.80
2018-11-12T17:18:59.316Z,68.30
2018-11-12T17:24:28.701Z,68.40
2018-11-12T17:29:58.255Z,68.60
2018-11-12T17:35:27.636Z,68.80
2018-11-12T17:40:57.397Z,68.90
2018-11-12T17:46:26.710Z,69.10
2018-11-12T17:51:56.065Z,69.40
2018-11-12T17:57:25.428Z,69.60
2018-11-12T18:02:54.804Z,69.80
2018-11-12T18:08:24.098Z,69.90
2018-11-12T18:13:53.526Z,70.00
2018-11-12T18:19:22.767Z,70.10
2018-11-12T18:24:52.138Z,70.30
2018-11-12T18:30:23.099Z,70.50
2018-11-12T18:35:52.360Z,71.00
2018-11-12T18:41:21.758Z,71.30
2018-11-12T18:46:51.164Z,71.30
2018-11-12T18:52:20.533Z,71.30
2018-11-12T18:57:51.186Z,72.40
2018-11-12T19:03:21.047Z,73.10
2018-11-12T19:08:50.420Z,72.50
2018-11-12T19:14:19.725Z,72.60
2018-11-12T19:19:49.031Z,72.90
2018-11-12T19:25:18.368Z,73.30
2018-11-12T19:30:47.708Z,73.50
2018-11-12T19:36:16.981Z,73.60
2018-11-12T19:41:49.239Z,73.80
2018-11-12T19:47:18.690Z,74.10
2018-11-12T19:52:49.103Z,74.20
2018-11-12T19:58:18.440Z,74.50
2018-11-12T20:03:47.809Z,74.60
2018-11-12T20:09:17.116Z,74.50
2018-11-12T20:14:46.564Z,74.60
2018-11-12T20:20:18.793Z,74.60
2018-11-12T20:25:48.403Z,74.60
2018-11-12T20:31:18.758Z,74.70
2018-11-12T20:36:48.117Z,74.80
2018-11-12T20:42:17.602Z,75.10
2018-11-12T20:47:49.383Z,75.80
2018-11-12T20:53:19.606Z,75.30
2018-11-12T20:58:49.011Z,75.40
2018-11-12T21:04:18.396Z,75.40
2018-11-12T21:09:47.752Z,75.70
2018-11-12T21:15:19.362Z,75.80
2018-11-12T21:20:48.828Z,76.00
2018-11-12T21:26:18.179Z,76.40
2018-11-12T21:31:49.017Z,76.10
2018-11-12T21:37:18.439Z,76.00
2018-11-12T21:42:48.010Z,76.30
2018-11-12T21:48:17.540Z,76.00
2018-11-12T21:53:47.000Z,76.00
2018-11-12T21:59:16.382Z,76.10
2018-11-12T22:04:46.004Z,76.10
2018-11-12T22:10:16.040Z,76.40
2018-11-12T22:15:45.372Z,76.60
2018-11-12T22:21:14.703Z,77.20
2018-11-12T22:26:44.046Z,77.30
2018-11-12T22:32:13.328Z,77.20
2018-11-12T22:37:43.262Z,77.10
2018-11-12T22:43:12.496Z,77.20
2018-11-12T22:48:41.700Z,77.30
2018-11-12T22:54:11.020Z,77.30
2018-11-12T22:59:40.233Z,77.20
2018-11-12T23:05:09.418Z,77.20
2018-11-12T23:10:39.748Z,77.30
2018-11-12T23:16:09.043Z,77.30
2018-11-12T23:21:38.886Z,77.30
2018-11-12T23:27:08.344Z,77.30
2018-11-12T23:32:37.649Z,77.50
2018-11-12T23:38:06.896Z,77.60
2018-11-12T23:43:36.300Z,77.60
2018-11-12T23:49:05.796Z,77.60
2018-11-12T23:54:35.037Z,77.80
